sensor_id;sensor_type;location;lat;lon;timestamp;temperature;humidity
13521;DHT22;6832;51.186;3.236;2023-03-24T00:01:46;18.70;64.40
13521;DHT22;6832;51.186;3.236;2023-03-24T00:04:13;18.70;64.30
13521;DHT22;6832;51.186;3.236;2023-03-24T00:06:41;18.70;64.30
13521;DHT22;6832;51.186;3.236;2023-03-24T00:09:09;18.80;64.40
13521;DHT22;6832;51.186;3.236;2023-03-24T00:11:38;18.70;64.30
13521;DHT22;6832;51.186;3.236;2023-03-24T00:14:05;18.70;64.30
13521;DHT22;6832;51.186;3.236;2023-03-24T00:16:33;18.70;64.30
13521;DHT22;6832;51.186;3.236;2023-03-24T00:19:03;18.70;64.30
13521;DHT22;6832;51.186;3.236;2023-03-24T00:21:32;18.70;64.30
13521;DHT22;6832;51.186;3.236;2023-03-24T00:24:00;18.70;64.30
13521;DHT22;6832;51.186;3.236;2023-03-24T00:26:29;18.70;64.30
13521;DHT22;6832;51.186;3.236;2023-03-24T00:28:57;18.70;64.30
13521;DHT22;6832;51.186;3.236;2023-03-24T00:31:24;18.70;64.30
13521;DHT22;6832;51.186;3.236;2023-03-24T00:33:52;18.70;64.30
13521;DHT22;6832;51.186;3.236;2023-03-24T00:36:21;18.70;64.30
13521;DHT22;6832;51.186;3.236;2023-03-24T00:38:49;18.70;64.40
13521;DHT22;6832;51.186;3.236;2023-03-24T00:41:17;18.70;64.30
13521;DHT22;6832;51.186;3.236;2023-03-24T00:44:04;18.70;64.30
13521;DHT22;6832;51.186;3.236;2023-03-24T00:46:31;18.70;64.30
13521;DHT22;6832;51.186;3.236;2023-03-24T00:49:03;18.70;64.30
13521;DHT22;6832;51.186;3.236;2023-03-24T00:51:32;18.70;64.30
13521;DHT22;6832;51.186;3.236;2023-03-24T00:54:00;18.70;64.30
13521;DHT22;6832;51.186;3.236;2023-03-24T00:56:31;18.60;64.20
13521;DHT22;6832;51.186;3.236;2023-03-24T00:58:59;18.70;64.30
13521;DHT22;6832;51.186;3.236;2023-03-24T01:01:29;18.60;64.20
13521;DHT22;6832;51.186;3.236;2023-03-24T01:03:58;18.70;64.30
13521;DHT22;6832;51.186;3.236;2023-03-24T01:06:26;18.70;64.30
13521;DHT22;6832;51.186;3.236;2023-03-24T01:08:55;18.70;64.40
13521;DHT22;6832;51.186;3.236;2023-03-24T01:11:24;18.70;64.30
13521;DHT22;6832;51.186;3.236;2023-03-24T01:13:51;18.70;64.30
13521;DHT22;6832;51.186;3.236;2023-03-24T01:16:19;18.60;64.20
13521;DHT22;6832;51.186;3.236;2023-03-24T01:18:50;18.60;64.20
13521;DHT22;6832;51.186;3.236;2023-03-24T01:21:17;18.60;64.20
13521;DHT22;6832;51.186;3.236;2023-03-24T01:23:46;18.60;64.20
13521;DHT22;6832;51.186;3.236;2023-03-24T01:26:16;18.60;64.20
13521;DHT22;6832;51.186;3.236;2023-03-24T01:28:43;18.60;64.20
13521;DHT22;6832;51.186;3.236;2023-03-24T01:31:15;18.60;64.20
13521;DHT22;6832;51.186;3.236;2023-03-24T01:33:42;18.60;64.20
13521;DHT22;6832;51.186;3.236;2023-03-24T01:36:09;18.60;64.20
13521;DHT22;6832;51.186;3.236;2023-03-24T01:38:37;18.60;64.30
13521;DHT22;6832;51.186;3.236;2023-03-24T01:41:06;18.60;64.20
13521;DHT22;6832;51.186;3.236;2023-03-24T01:43:34;18.60;64.20
13521;DHT22;6832;51.186;3.236;2023-03-24T01:46:07;18.60;64.20
13521;DHT22;6832;51.186;3.236;2023-03-24T01:48:42;18.60;64.20
13521;DHT22;6832;51.186;3.236;2023-03-24T01:51:15;18.60;64.20
13521;DHT22;6832;51.186;3.236;2023-03-24T01:53:46;18.60;64.20
13521;DHT22;6832;51.186;3.236;2023-03-24T01:56:17;18.50;64.20
13521;DHT22;6832;51.186;3.236;2023-03-24T01:58:47;18.50;64.10
13521;DHT22;6832;51.186;3.236;2023-03-24T02:01:16;18.50;64.10
13521;DHT22;6832;51.186;3.236;2023-03-24T02:03:47;18.50;64.10
13521;DHT22;6832;51.186;3.236;2023-03-24T02:06:15;18.50;64.10
13521;DHT22;6832;51.186;3.236;2023-03-24T02:08:47;18.50;64.20
13521;DHT22;6832;51.186;3.236;2023-03-24T02:11:18;18.50;64.10
13521;DHT22;6832;51.186;3.236;2023-03-24T02:13:45;18.50;64.10
13521;DHT22;6832;51.186;3.236;2023-03-24T02:16:36;18.50;64.20
13521;DHT22;6832;51.186;3.236;2023-03-24T02:23:00;18.40;64.10
13521;DHT22;6832;51.186;3.236;2023-03-24T02:26:04;18.40;64.00
13521;DHT22;6832;51.186;3.236;2023-03-24T02:28:42;18.50;64.10
13521;DHT22;6832;51.186;3.236;2023-03-24T02:31:31;18.40;64.00
13521;DHT22;6832;51.186;3.236;2023-03-24T02:40:20;18.40;64.00
13521;DHT22;6832;51.186;3.236;2023-03-24T02:43:06;18.30;63.90
13521;DHT22;6832;51.186;3.236;2023-03-24T02:45:41;18.30;63.90
13521;DHT22;6832;51.186;3.236;2023-03-24T02:48:21;18.30;63.90
13521;DHT22;6832;51.186;3.236;2023-03-24T02:50:55;18.30;63.90
13521;DHT22;6832;51.186;3.236;2023-03-24T02:53:29;18.30;63.90
13521;DHT22;6832;51.186;3.236;2023-03-24T02:56:06;18.30;64.00
13521;DHT22;6832;51.186;3.236;2023-03-24T02:58:42;18.30;63.90
13521;DHT22;6832;51.186;3.236;2023-03-24T03:01:15;18.30;63.90
13521;DHT22;6832;51.186;3.236;2023-03-24T03:03:47;18.20;63.80
13521;DHT22;6832;51.186;3.236;2023-03-24T03:06:19;18.20;63.80
13521;DHT22;6832;51.186;3.236;2023-03-24T03:08:49;18.20;63.80
13521;DHT22;6832;51.186;3.236;2023-03-24T03:11:18;18.20;63.80
13521;DHT22;6832;51.186;3.236;2023-03-24T03:13:50;18.20;63.80
13521;DHT22;6832;51.186;3.236;2023-03-24T03:16:21;18.20;63.80
13521;DHT22;6832;51.186;3.236;2023-03-24T03:18:53;18.20;63.80
13521;DHT22;6832;51.186;3.236;2023-03-24T03:21:23;18.20;63.80
13521;DHT22;6832;51.186;3.236;2023-03-24T03:23:52;18.20;63.80
13521;DHT22;6832;51.186;3.236;2023-03-24T03:26:24;18.20;63.80
13521;DHT22;6832;51.186;3.236;2023-03-24T03:28:56;18.20;63.80
13521;DHT22;6832;51.186;3.236;2023-03-24T03:31:28;18.20;63.80
13521;DHT22;6832;51.186;3.236;2023-03-24T03:34:03;18.20;63.80
13521;DHT22;6832;51.186;3.236;2023-03-24T03:36:38;18.10;63.70
13521;DHT22;6832;51.186;3.236;2023-03-24T03:39:10;18.20;63.80
13521;DHT22;6832;51.186;3.236;2023-03-24T03:41:42;18.10;63.70
13521;DHT22;6832;51.186;3.236;2023-03-24T03:44:09;18.10;63.70
13521;DHT22;6832;51.186;3.236;2023-03-24T03:46:37;18.10;63.70
13521;DHT22;6832;51.186;3.236;2023-03-24T03:49:05;18.10;63.70
13521;DHT22;6832;51.186;3.236;2023-03-24T03:51:33;18.10;63.70
13521;DHT22;6832;51.186;3.236;2023-03-24T03:54:04;18.10;63.70
13521;DHT22;6832;51.186;3.236;2023-03-24T03:56:34;18.10;63.70
13521;DHT22;6832;51.186;3.236;2023-03-24T03:59:03;18.00;63.60
13521;DHT22;6832;51.186;3.236;2023-03-24T04:01:32;18.00;63.60
13521;DHT22;6832;51.186;3.236;2023-03-24T04:04:12;18.00;63.60
13521;DHT22;6832;51.186;3.236;2023-03-24T04:06:56;18.00;63.60
13521;DHT22;6832;51.186;3.236;2023-03-24T04:09:36;18.00;63.60
13521;DHT22;6832;51.186;3.236;2023-03-24T04:12:33;18.00;63.60
13521;DHT22;6832;51.186;3.236;2023-03-24T04:15:24;18.00;63.60
13521;DHT22;6832;51.186;3.236;2023-03-24T04:20:46;18.00;63.60
13521;DHT22;6832;51.186;3.236;2023-03-24T04:23:23;18.00;63.60
13521;DHT22;6832;51.186;3.236;2023-03-24T04:26:01;18.00;63.60
13521;DHT22;6832;51.186;3.236;2023-03-24T04:28:37;17.90;63.50
13521;DHT22;6832;51.186;3.236;2023-03-24T04:31:13;17.90;63.50
13521;DHT22;6832;51.186;3.236;2023-03-24T04:33:48;17.90;63.50
13521;DHT22;6832;51.186;3.236;2023-03-24T04:36:21;17.90;63.50
13521;DHT22;6832;51.186;3.236;2023-03-24T04:38:55;17.90;63.50
13521;DHT22;6832;51.186;3.236;2023-03-24T04:41:25;17.90;63.50
13521;DHT22;6832;51.186;3.236;2023-03-24T04:43:53;17.90;63.50
13521;DHT22;6832;51.186;3.236;2023-03-24T04:46:26;17.90;63.50
13521;DHT22;6832;51.186;3.236;2023-03-24T04:48:54;17.90;63.50
13521;DHT22;6832;51.186;3.236;2023-03-24T04:51:21;17.90;63.50
13521;DHT22;6832;51.186;3.236;2023-03-24T04:53:48;17.80;63.40
13521;DHT22;6832;51.186;3.236;2023-03-24T04:56:29;17.90;63.50
13521;DHT22;6832;51.186;3.236;2023-03-24T04:58:56;17.90;63.50
13521;DHT22;6832;51.186;3.236;2023-03-24T05:01:26;17.80;63.40
13521;DHT22;6832;51.186;3.236;2023-03-24T05:03:55;17.80;63.40
13521;DHT22;6832;51.186;3.236;2023-03-24T05:06:22;17.80;63.40
13521;DHT22;6832;51.186;3.236;2023-03-24T05:08:49;17.80;63.40
13521;DHT22;6832;51.186;3.236;2023-03-24T05:11:17;17.80;63.40
13521;DHT22;6832;51.186;3.236;2023-03-24T05:13:45;17.80;63.40
13521;DHT22;6832;51.186;3.236;2023-03-24T05:16:13;17.80;63.40
13521;DHT22;6832;51.186;3.236;2023-03-24T05:18:42;17.80;63.40
13521;DHT22;6832;51.186;3.236;2023-03-24T05:21:15;17.80;63.40
13521;DHT22;6832;51.186;3.236;2023-03-24T05:23:42;17.80;63.40
13521;DHT22;6832;51.186;3.236;2023-03-24T05:26:09;17.80;63.40
13521;DHT22;6832;51.186;3.236;2023-03-24T05:28:36;17.80;63.40
13521;DHT22;6832;51.186;3.236;2023-03-24T05:31:03;17.80;64.10
13521;DHT22;6832;51.186;3.236;2023-03-24T05:33:30;17.80;63.40
13521;DHT22;6832;51.186;3.236;2023-03-24T05:35:58;17.80;63.40
13521;DHT22;6832;51.186;3.236;2023-03-24T05:38:25;17.80;63.40
13521;DHT22;6832;51.186;3.236;2023-03-24T05:40:55;17.80;63.40
13521;DHT22;6832;51.186;3.236;2023-03-24T05:43:23;17.80;63.40
13521;DHT22;6832;51.186;3.236;2023-03-24T05:45:50;17.80;63.40
13521;DHT22;6832;51.186;3.236;2023-03-24T05:48:17;17.80;63.40
13521;DHT22;6832;51.186;3.236;2023-03-24T05:50:47;17.80;63.40
13521;DHT22;6832;51.186;3.236;2023-03-24T05:53:15;17.80;63.40
13521;DHT22;6832;51.186;3.236;2023-03-24T05:55:43;17.70;63.20
13521;DHT22;6832;51.186;3.236;2023-03-24T05:58:10;17.70;63.30
13521;DHT22;6832;51.186;3.236;2023-03-24T06:00:38;17.90;63.50
13521;DHT22;6832;51.186;3.236;2023-03-24T06:03:05;17.80;63.40
13521;DHT22;6832;51.186;3.236;2023-03-24T06:05:32;17.80;63.40
13521;DHT22;6832;51.186;3.236;2023-03-24T06:07:59;17.70;63.20
13521;DHT22;6832;51.186;3.236;2023-03-24T06:10:27;17.70;63.20
13521;DHT22;6832;51.186;3.236;2023-03-24T06:13:00;17.70;63.20
13521;DHT22;6832;51.186;3.236;2023-03-24T06:15:27;17.70;63.20
13521;DHT22;6832;51.186;3.236;2023-03-24T06:17:55;17.70;63.20
13521;DHT22;6832;51.186;3.236;2023-03-24T06:20:22;17.70;63.20
13521;DHT22;6832;51.186;3.236;2023-03-24T06:22:49;17.70;63.30
13521;DHT22;6832;51.186;3.236;2023-03-24T06:25:17;17.70;63.20
13521;DHT22;6832;51.186;3.236;2023-03-24T06:27:48;17.70;63.20
13521;DHT22;6832;51.186;3.236;2023-03-24T06:30:18;17.70;63.20
13521;DHT22;6832;51.186;3.236;2023-03-24T06:32:45;17.60;63.10
13521;DHT22;6832;51.186;3.236;2023-03-24T06:35:13;17.70;63.30
13521;DHT22;6832;51.186;3.236;2023-03-24T06:37:40;17.60;63.10
13521;DHT22;6832;51.186;3.236;2023-03-24T06:40:08;17.70;63.20
13521;DHT22;6832;51.186;3.236;2023-03-24T06:42:38;17.60;63.20
13521;DHT22;6832;51.186;3.236;2023-03-24T06:45:10;17.70;63.20
13521;DHT22;6832;51.186;3.236;2023-03-24T06:47:37;17.60;63.10
13521;DHT22;6832;51.186;3.236;2023-03-24T06:50:05;17.70;63.20
13521;DHT22;6832;51.186;3.236;2023-03-24T06:52:33;17.70;63.30
13521;DHT22;6832;51.186;3.236;2023-03-24T06:55:00;17.60;63.20
13521;DHT22;6832;51.186;3.236;2023-03-24T06:57:27;17.60;63.10
13521;DHT22;6832;51.186;3.236;2023-03-24T06:59:54;17.60;63.10
13521;DHT22;6832;51.186;3.236;2023-03-24T07:02:22;17.50;63.00
13521;DHT22;6832;51.186;3.236;2023-03-24T07:04:49;17.60;63.10
13521;DHT22;6832;51.186;3.236;2023-03-24T07:07:18;17.60;63.20
13521;DHT22;6832;51.186;3.236;2023-03-24T07:09:47;17.60;63.10
13521;DHT22;6832;51.186;3.236;2023-03-24T07:12:14;17.60;63.20
13521;DHT22;6832;51.186;3.236;2023-03-24T07:14:48;17.60;63.20
13521;DHT22;6832;51.186;3.236;2023-03-24T07:17:15;17.60;63.20
13521;DHT22;6832;51.186;3.236;2023-03-24T07:19:43;17.60;63.20
13521;DHT22;6832;51.186;3.236;2023-03-24T07:22:11;17.60;63.10
13521;DHT22;6832;51.186;3.236;2023-03-24T07:24:38;17.60;63.20
13521;DHT22;6832;51.186;3.236;2023-03-24T07:27:05;17.60;63.20
13521;DHT22;6832;51.186;3.236;2023-03-24T07:29:33;17.50;63.10
13521;DHT22;6832;51.186;3.236;2023-03-24T07:32:01;17.60;63.20
13521;DHT22;6832;51.186;3.236;2023-03-24T07:34:29;17.60;63.20
13521;DHT22;6832;51.186;3.236;2023-03-24T07:39:41;17.60;63.10
13521;DHT22;6832;51.186;3.236;2023-03-24T07:42:14;17.60;64.00
13521;DHT22;6832;51.186;3.236;2023-03-24T07:44:41;17.60;63.10
13521;DHT22;6832;51.186;3.236;2023-03-24T07:47:08;17.60;63.20
13521;DHT22;6832;51.186;3.236;2023-03-24T07:49:35;17.60;63.20
13521;DHT22;6832;51.186;3.236;2023-03-24T07:52:06;17.50;63.10
13521;DHT22;6832;51.186;3.236;2023-03-24T07:54:33;17.50;63.10
13521;DHT22;6832;51.186;3.236;2023-03-24T07:57:01;17.60;63.20
13521;DHT22;6832;51.186;3.236;2023-03-24T07:59:28;17.60;63.20
13521;DHT22;6832;51.186;3.236;2023-03-24T08:01:55;17.60;63.20
13521;DHT22;6832;51.186;3.236;2023-03-24T08:04:22;17.60;63.20
13521;DHT22;6832;51.186;3.236;2023-03-24T08:06:49;17.60;63.20
13521;DHT22;6832;51.186;3.236;2023-03-24T08:09:19;17.60;63.20
13521;DHT22;6832;51.186;3.236;2023-03-24T08:11:48;17.60;63.20
13521;DHT22;6832;51.186;3.236;2023-03-24T08:14:15;17.60;63.20
13521;DHT22;6832;51.186;3.236;2023-03-24T08:16:42;17.60;63.20
13521;DHT22;6832;51.186;3.236;2023-03-24T08:19:11;17.60;63.20
13521;DHT22;6832;51.186;3.236;2023-03-24T08:21:38;17.60;63.20
13521;DHT22;6832;51.186;3.236;2023-03-24T08:24:05;17.60;63.20
13521;DHT22;6832;51.186;3.236;2023-03-24T08:26:34;17.60;63.20
13521;DHT22;6832;51.186;3.236;2023-03-24T08:29:01;17.60;63.20
13521;DHT22;6832;51.186;3.236;2023-03-24T08:31:32;17.60;63.40
13521;DHT22;6832;51.186;3.236;2023-03-24T08:34:00;17.60;63.20
13521;DHT22;6832;51.186;3.236;2023-03-24T08:36:27;17.60;63.20
13521;DHT22;6832;51.186;3.236;2023-03-24T08:38:55;17.60;63.20
13521;DHT22;6832;51.186;3.236;2023-03-24T08:41:23;17.70;64.00
13521;DHT22;6832;51.186;3.236;2023-03-24T08:43:58;17.60;63.20
13521;DHT22;6832;51.186;3.236;2023-03-24T08:46:26;17.60;63.20
13521;DHT22;6832;51.186;3.236;2023-03-24T08:48:53;17.60;63.10
13521;DHT22;6832;51.186;3.236;2023-03-24T08:51:23;17.60;63.10
13521;DHT22;6832;51.186;3.236;2023-03-24T08:53:50;17.60;63.10
13521;DHT22;6832;51.186;3.236;2023-03-24T08:56:19;17.60;63.20
13521;DHT22;6832;51.186;3.236;2023-03-24T08:58:47;17.60;63.10
13521;DHT22;6832;51.186;3.236;2023-03-24T09:01:18;17.60;63.10
13521;DHT22;6832;51.186;3.236;2023-03-24T09:03:45;17.60;63.10
13521;DHT22;6832;51.186;3.236;2023-03-24T09:06:15;17.60;63.20
13521;DHT22;6832;51.186;3.236;2023-03-24T09:08:42;17.60;63.20
13521;DHT22;6832;51.186;3.236;2023-03-24T09:11:13;17.60;63.10
13521;DHT22;6832;51.186;3.236;2023-03-24T09:13:41;17.60;63.10
13521;DHT22;6832;51.186;3.236;2023-03-24T09:16:09;17.60;63.20
13521;DHT22;6832;51.186;3.236;2023-03-24T09:18:40;17.60;63.20
13521;DHT22;6832;51.186;3.236;2023-03-24T09:21:08;17.60;63.10
13521;DHT22;6832;51.186;3.236;2023-03-24T09:23:35;17.60;63.20
13521;DHT22;6832;51.186;3.236;2023-03-24T09:26:02;17.60;63.20
13521;DHT22;6832;51.186;3.236;2023-03-24T09:28:30;17.60;63.20
13521;DHT22;6832;51.186;3.236;2023-03-24T09:31:11;17.60;63.20
13521;DHT22;6832;51.186;3.236;2023-03-24T09:37:24;17.60;63.20
13521;DHT22;6832;51.186;3.236;2023-03-24T09:40:30;17.60;63.20
13521;DHT22;6832;51.186;3.236;2023-03-24T09:43:04;17.70;63.30
13521;DHT22;6832;51.186;3.236;2023-03-24T09:45:48;17.50;63.00
13521;DHT22;6832;51.186;3.236;2023-03-24T09:48:23;17.60;63.20
13521;DHT22;6832;51.186;3.236;2023-03-24T09:58:03;17.70;63.40
13521;DHT22;6832;51.186;3.236;2023-03-24T10:04:14;17.80;63.60
13521;DHT22;6832;51.186;3.236;2023-03-24T10:06:43;17.70;63.40
13521;DHT22;6832;51.186;3.236;2023-03-24T10:09:21;17.70;63.40
13521;DHT22;6832;51.186;3.236;2023-03-24T10:12:00;17.70;63.50
13521;DHT22;6832;51.186;3.236;2023-03-24T10:14:45;17.70;63.40
13521;DHT22;6832;51.186;3.236;2023-03-24T10:17:28;17.80;63.60
13521;DHT22;6832;51.186;3.236;2023-03-24T10:20:20;17.70;63.50
13521;DHT22;6832;51.186;3.236;2023-03-24T10:22:58;17.80;63.50
13521;DHT22;6832;51.186;3.236;2023-03-24T10:25:38;17.80;63.60
13521;DHT22;6832;51.186;3.236;2023-03-24T10:28:15;17.80;63.60
13521;DHT22;6832;51.186;3.236;2023-03-24T10:30:44;17.80;63.60
13521;DHT22;6832;51.186;3.236;2023-03-24T10:33:13;17.80;63.60
13521;DHT22;6832;51.186;3.236;2023-03-24T10:35:47;17.80;63.60
13521;DHT22;6832;51.186;3.236;2023-03-24T10:38:18;17.90;63.80
13521;DHT22;6832;51.186;3.236;2023-03-24T10:40:46;17.90;63.80
13521;DHT22;6832;51.186;3.236;2023-03-24T10:43:16;17.90;63.80
13521;DHT22;6832;51.186;3.236;2023-03-24T10:45:47;17.90;63.80
13521;DHT22;6832;51.186;3.236;2023-03-24T10:48:34;17.90;63.80
13521;DHT22;6832;51.186;3.236;2023-03-24T10:51:01;17.90;63.90
13521;DHT22;6832;51.186;3.236;2023-03-24T10:53:31;17.90;63.60
13521;DHT22;6832;51.186;3.236;2023-03-24T10:55:59;18.00;63.60
13521;DHT22;6832;51.186;3.236;2023-03-24T10:58:36;17.90;63.50
13521;DHT22;6832;51.186;3.236;2023-03-24T11:01:18;18.00;63.60
13521;DHT22;6832;51.186;3.236;2023-03-24T11:03:52;18.00;63.60
13521;DHT22;6832;51.186;3.236;2023-03-24T11:06:25;18.00;63.60
13521;DHT22;6832;51.186;3.236;2023-03-24T11:09:07;18.00;63.60
13521;DHT22;6832;51.186;3.236;2023-03-24T11:11:36;18.10;63.70
13521;DHT22;6832;51.186;3.236;2023-03-24T11:14:18;18.00;63.60
13521;DHT22;6832;51.186;3.236;2023-03-24T11:16:48;18.00;63.60
13521;DHT22;6832;51.186;3.236;2023-03-24T11:19:19;18.10;63.70
13521;DHT22;6832;51.186;3.236;2023-03-24T11:21:48;18.00;63.60
13521;DHT22;6832;51.186;3.236;2023-03-24T11:24:19;18.10;63.70
13521;DHT22;6832;51.186;3.236;2023-03-24T11:26:53;18.10;63.70
13521;DHT22;6832;51.186;3.236;2023-03-24T11:29:27;18.10;63.70
13521;DHT22;6832;51.186;3.236;2023-03-24T11:32:00;18.10;63.70
13521;DHT22;6832;51.186;3.236;2023-03-24T11:34:33;18.20;63.80
13521;DHT22;6832;51.186;3.236;2023-03-24T11:37:05;18.10;63.70
13521;DHT22;6832;51.186;3.236;2023-03-24T11:39:37;18.10;63.70
13521;DHT22;6832;51.186;3.236;2023-03-24T11:42:13;18.20;63.80
13521;DHT22;6832;51.186;3.236;2023-03-24T11:44:47;18.20;63.80
13521;DHT22;6832;51.186;3.236;2023-03-24T11:47:21;18.20;63.80
13521;DHT22;6832;51.186;3.236;2023-03-24T11:49:56;18.20;63.80
13521;DHT22;6832;51.186;3.236;2023-03-24T11:52:28;18.20;63.80
13521;DHT22;6832;51.186;3.236;2023-03-24T11:54:59;18.20;63.80
13521;DHT22;6832;51.186;3.236;2023-03-24T11:57:43;18.20;63.80
13521;DHT22;6832;51.186;3.236;2023-03-24T12:00:19;18.20;63.80
13521;DHT22;6832;51.186;3.236;2023-03-24T12:03:10;18.30;63.90
13521;DHT22;6832;51.186;3.236;2023-03-24T12:05:53;18.20;63.80
13521;DHT22;6832;51.186;3.236;2023-03-24T12:08:39;18.30;63.90
13521;DHT22;6832;51.186;3.236;2023-03-24T12:11:16;18.30;63.90
13521;DHT22;6832;51.186;3.236;2023-03-24T12:13:48;18.20;63.80
13521;DHT22;6832;51.186;3.236;2023-03-24T12:16:35;18.30;63.90
13521;DHT22;6832;51.186;3.236;2023-03-24T12:19:40;18.30;63.90
13521;DHT22;6832;51.186;3.236;2023-03-24T12:22:18;18.30;63.90
13521;DHT22;6832;51.186;3.236;2023-03-24T12:25:03;18.30;64.00
13521;DHT22;6832;51.186;3.236;2023-03-24T12:27:43;18.30;63.90
13521;DHT22;6832;51.186;3.236;2023-03-24T12:30:15;18.30;63.90
13521;DHT22;6832;51.186;3.236;2023-03-24T12:32:55;18.30;64.00
13521;DHT22;6832;51.186;3.236;2023-03-24T12:38:33;18.40;64.00
13521;DHT22;6832;51.186;3.236;2023-03-24T12:41:44;18.40;64.00
13521;DHT22;6832;51.186;3.236;2023-03-24T12:47:24;18.40;64.00
13521;DHT22;6832;51.186;3.236;2023-03-24T12:50:03;18.40;64.80
13521;DHT22;6832;51.186;3.236;2023-03-24T12:52:51;18.40;64.00
13521;DHT22;6832;51.186;3.236;2023-03-24T12:55:27;18.40;64.00
13521;DHT22;6832;51.186;3.236;2023-03-24T12:58:01;18.30;63.60
13521;DHT22;6832;51.186;3.236;2023-03-24T13:00:34;18.40;63.60
13521;DHT22;6832;51.186;3.236;2023-03-24T13:03:05;18.40;63.50
13521;DHT22;6832;51.186;3.236;2023-03-24T13:05:39;18.40;63.50
13521;DHT22;6832;51.186;3.236;2023-03-24T13:08:23;18.40;63.50
13521;DHT22;6832;51.186;3.236;2023-03-24T13:10:57;18.40;63.40
13521;DHT22;6832;51.186;3.236;2023-03-24T13:13:30;18.40;63.40
13521;DHT22;6832;51.186;3.236;2023-03-24T13:16:00;18.40;63.50
13521;DHT22;6832;51.186;3.236;2023-03-24T13:18:31;18.40;63.50
13521;DHT22;6832;51.186;3.236;2023-03-24T13:21:05;18.40;63.50
13521;DHT22;6832;51.186;3.236;2023-03-24T13:23:44;18.40;63.40
13521;DHT22;6832;51.186;3.236;2023-03-24T13:26:22;18.40;63.40
13521;DHT22;6832;51.186;3.236;2023-03-24T13:28:59;18.40;63.50
13521;DHT22;6832;51.186;3.236;2023-03-24T13:31:34;18.40;63.60
13521;DHT22;6832;51.186;3.236;2023-03-24T13:34:03;18.50;63.70
13521;DHT22;6832;51.186;3.236;2023-03-24T13:36:41;18.50;63.70
13521;DHT22;6832;51.186;3.236;2023-03-24T13:39:13;18.50;63.80
13521;DHT22;6832;51.186;3.236;2023-03-24T13:41:46;18.50;63.60
13521;DHT22;6832;51.186;3.236;2023-03-24T13:44:18;18.50;63.40
13521;DHT22;6832;51.186;3.236;2023-03-24T13:47:03;18.50;63.50
13521;DHT22;6832;51.186;3.236;2023-03-24T13:49:34;18.60;63.70
13521;DHT22;6832;51.186;3.236;2023-03-24T13:52:19;18.50;63.60
13521;DHT22;6832;51.186;3.236;2023-03-24T13:54:49;18.50;63.50
13521;DHT22;6832;51.186;3.236;2023-03-24T13:57:19;18.60;63.50
13521;DHT22;6832;51.186;3.236;2023-03-24T14:00:00;18.60;63.50
13521;DHT22;6832;51.186;3.236;2023-03-24T14:02:47;18.60;63.60
13521;DHT22;6832;51.186;3.236;2023-03-24T14:05:38;18.60;63.50
13521;DHT22;6832;51.186;3.236;2023-03-24T14:08:12;18.70;63.60
13521;DHT22;6832;51.186;3.236;2023-03-24T14:10:44;18.70;63.70
13521;DHT22;6832;51.186;3.236;2023-03-24T14:13:47;18.70;63.80
13521;DHT22;6832;51.186;3.236;2023-03-24T14:16:49;18.70;63.90
13521;DHT22;6832;51.186;3.236;2023-03-24T14:19:20;18.80;64.00
13521;DHT22;6832;51.186;3.236;2023-03-24T14:21:55;18.80;64.10
13521;DHT22;6832;51.186;3.236;2023-03-24T14:24:25;18.90;64.30
13521;DHT22;6832;51.186;3.236;2023-03-24T14:26:55;18.80;64.20
13521;DHT22;6832;51.186;3.236;2023-03-24T14:29:36;18.90;64.30
13521;DHT22;6832;51.186;3.236;2023-03-24T14:32:04;18.90;64.40
13521;DHT22;6832;51.186;3.236;2023-03-24T14:34:33;19.00;64.50
13521;DHT22;6832;51.186;3.236;2023-03-24T14:37:03;19.00;64.50
13521;DHT22;6832;51.186;3.236;2023-03-24T14:39:38;19.00;64.50
13521;DHT22;6832;51.186;3.236;2023-03-24T14:45:40;19.10;64.70
13521;DHT22;6832;51.186;3.236;2023-03-24T14:48:30;19.10;65.40
13521;DHT22;6832;51.186;3.236;2023-03-24T14:51:01;19.10;64.40
13521;DHT22;6832;51.186;3.236;2023-03-24T14:53:29;19.10;64.10
13521;DHT22;6832;51.186;3.236;2023-03-24T14:56:00;19.20;64.10
13521;DHT22;6832;51.186;3.236;2023-03-24T14:58:31;19.20;63.80
13521;DHT22;6832;51.186;3.236;2023-03-24T15:01:04;19.20;63.50
13521;DHT22;6832;51.186;3.236;2023-03-24T15:03:35;19.20;63.30
13521;DHT22;6832;51.186;3.236;2023-03-24T15:06:12;19.20;63.20
13521;DHT22;6832;51.186;3.236;2023-03-24T15:08:44;19.20;63.10
13521;DHT22;6832;51.186;3.236;2023-03-24T15:11:15;19.30;63.20
13521;DHT22;6832;51.186;3.236;2023-03-24T15:13:49;19.20;62.70
13521;DHT22;6832;51.186;3.236;2023-03-24T15:16:22;19.20;62.60
13521;DHT22;6832;51.186;3.236;2023-03-24T15:18:52;19.30;62.60
13521;DHT22;6832;51.186;3.236;2023-03-24T15:21:26;19.20;62.30
13521;DHT22;6832;51.186;3.236;2023-03-24T15:23:54;19.20;62.10
13521;DHT22;6832;51.186;3.236;2023-03-24T15:26:23;19.30;62.10
13521;DHT22;6832;51.186;3.236;2023-03-24T15:28:55;19.20;62.00
13521;DHT22;6832;51.186;3.236;2023-03-24T15:31:28;19.20;62.00
13521;DHT22;6832;51.186;3.236;2023-03-24T15:34:21;19.20;61.80
13521;DHT22;6832;51.186;3.236;2023-03-24T15:36:54;19.20;62.00
13521;DHT22;6832;51.186;3.236;2023-03-24T15:39:27;19.20;61.80
13521;DHT22;6832;51.186;3.236;2023-03-24T15:41:54;19.20;61.70
13521;DHT22;6832;51.186;3.236;2023-03-24T15:44:24;19.10;61.60
13521;DHT22;6832;51.186;3.236;2023-03-24T15:46:58;19.10;61.50
13521;DHT22;6832;51.186;3.236;2023-03-24T15:49:29;19.10;61.40
13521;DHT22;6832;51.186;3.236;2023-03-24T15:51:59;19.00;61.50
13521;DHT22;6832;51.186;3.236;2023-03-24T15:54:29;19.00;61.70
13521;DHT22;6832;51.186;3.236;2023-03-24T15:57:13;19.00;61.50
13521;DHT22;6832;51.186;3.236;2023-03-24T15:59:45;19.10;61.30
13521;DHT22;6832;51.186;3.236;2023-03-24T16:02:24;19.10;61.30
13521;DHT22;6832;51.186;3.236;2023-03-24T16:04:55;19.10;61.00
13521;DHT22;6832;51.186;3.236;2023-03-24T16:07:25;19.00;60.90
13521;DHT22;6832;51.186;3.236;2023-03-24T16:09:58;19.00;61.00
13521;DHT22;6832;51.186;3.236;2023-03-24T16:12:30;19.00;61.00
13521;DHT22;6832;51.186;3.236;2023-03-24T16:14:58;19.00;61.20
13521;DHT22;6832;51.186;3.236;2023-03-24T16:17:26;18.90;61.40
13521;DHT22;6832;51.186;3.236;2023-03-24T16:19:53;18.90;61.40
13521;DHT22;6832;51.186;3.236;2023-03-24T16:22:31;19.00;61.60
13521;DHT22;6832;51.186;3.236;2023-03-24T16:25:12;19.00;61.50
13521;DHT22;6832;51.186;3.236;2023-03-24T16:27:40;19.00;61.70
13521;DHT22;6832;51.186;3.236;2023-03-24T16:30:17;19.00;61.70
13521;DHT22;6832;51.186;3.236;2023-03-24T16:32:46;19.00;61.80
13521;DHT22;6832;51.186;3.236;2023-03-24T16:35:13;19.00;61.70
13521;DHT22;6832;51.186;3.236;2023-03-24T16:37:40;18.90;61.70
13521;DHT22;6832;51.186;3.236;2023-03-24T16:40:19;19.00;62.00
13521;DHT22;6832;51.186;3.236;2023-03-24T16:42:46;18.90;61.90
13521;DHT22;6832;51.186;3.236;2023-03-24T16:45:14;19.00;62.10
13521;DHT22;6832;51.186;3.236;2023-03-24T16:47:41;19.00;62.20
13521;DHT22;6832;51.186;3.236;2023-03-24T16:50:25;19.00;62.20
13521;DHT22;6832;51.186;3.236;2023-03-24T16:52:53;19.00;62.20
13521;DHT22;6832;51.186;3.236;2023-03-24T16:55:20;19.00;62.30
13521;DHT22;6832;51.186;3.236;2023-03-24T16:57:47;18.90;62.20